sensor_id;sensor_type;location;lat;lon;timestamp;P1;durP1;ratioP1;P2;durP2;ratioP2
42066;SDS011;27734;47.028;28.820;2023-11-21T00:01:08;44.50;;;23.43;;
42066;SDS011;27734;47.028;28.820;2023-11-21T00:03:41;43.13;;;23.47;;
42066;SDS011;27734;47.028;28.820;2023-11-21T00:06:13;50.80;;;25.07;;
42066;SDS011;27734;47.028;28.820;2023-11-21T00:08:44;41.13;;;22.27;;
42066;SDS011;27734;47.028;28.820;2023-11-21T00:11:16;44.60;;;23.23;;
42066;SDS011;27734;47.028;28.820;2023-11-21T00:13:47;46.33;;;24.07;;
42066;SDS011;27734;47.028;28.820;2023-11-21T00:16:19;45.33;;;24.00;;
42066;SDS011;27734;47.028;28.820;2023-11-21T00:18:50;46.57;;;24.30;;
42066;SDS011;27734;47.028;28.820;2023-11-21T00:21:22;45.97;;;23.57;;
42066;SDS011;27734;47.028;28.820;2023-11-21T00:23:53;46.47;;;25.10;;
42066;SDS011;27734;47.028;28.820;2023-11-21T00:26:25;44.07;;;22.77;;
42066;SDS011;27734;47.028;28.820;2023-11-21T00:29:02;44.77;;;23.70;;
42066;SDS011;27734;47.028;28.820;2023-11-21T00:34:07;43.07;;;22.33;;
42066;SDS011;27734;47.028;28.820;2023-11-21T00:36:41;41.13;;;21.90;;
42066;SDS011;27734;47.028;28.820;2023-11-21T00:39:12;43.27;;;22.53;;
42066;SDS011;27734;47.028;28.820;2023-11-21T00:41:44;45.07;;;23.07;;
42066;SDS011;27734;47.028;28.820;2023-11-21T00:44:16;40.33;;;21.17;;
42066;SDS011;27734;47.028;28.820;2023-11-21T00:46:55;43.07;;;22.30;;
42066;SDS011;27734;47.028;28.820;2023-11-21T00:49:27;44.90;;;24.07;;
42066;SDS011;27734;47.028;28.820;2023-11-21T00:51:58;42.23;;;21.53;;
42066;SDS011;27734;47.028;28.820;2023-11-21T00:54:31;37.07;;;19.83;;
42066;SDS011;27734;47.028;28.820;2023-11-21T00:57:02;40.37;;;21.20;;
42066;SDS011;27734;47.028;28.820;2023-11-21T00:59:34;40.03;;;20.77;;
42066;SDS011;27734;47.028;28.820;2023-11-21T01:02:06;40.10;;;21.67;;
42066;SDS011;27734;47.028;28.820;2023-11-21T01:04:38;43.93;;;22.60;;
42066;SDS011;27734;47.028;28.820;2023-11-21T01:07:10;38.50;;;20.50;;
42066;SDS011;27734;47.028;28.820;2023-11-21T01:09:41;42.73;;;21.17;;
42066;SDS011;27734;47.028;28.820;2023-11-21T01:12:13;40.17;;;21.23;;
42066;SDS011;27734;47.028;28.820;2023-11-21T01:14:45;41.00;;;20.93;;
42066;SDS011;27734;47.028;28.820;2023-11-21T01:17:17;38.20;;;20.40;;
42066;SDS011;27734;47.028;28.820;2023-11-21T01:19:50;38.02;;;20.30;;
42066;SDS011;27734;47.028;28.820;2023-11-21T01:22:22;36.93;;;20.07;;
42066;SDS011;27734;47.028;28.820;2023-11-21T01:24:55;34.90;;;19.05;;
42066;SDS011;27734;47.028;28.820;2023-11-21T01:27:27;38.13;;;19.43;;
42066;SDS011;27734;47.028;28.820;2023-11-21T01:29:58;35.60;;;17.97;;
42066;SDS011;27734;47.028;28.820;2023-11-21T01:32:30;36.95;;;19.55;;
42066;SDS011;27734;47.028;28.820;2023-11-21T01:35:02;39.45;;;19.65;;
42066;SDS011;27734;47.028;28.820;2023-11-21T01:37:34;37.03;;;19.60;;
42066;SDS011;27734;47.028;28.820;2023-11-21T01:40:07;36.30;;;19.23;;
42066;SDS011;27734;47.028;28.820;2023-11-21T01:42:42;36.20;;;18.77;;
42066;SDS011;27734;47.028;28.820;2023-11-21T01:45:15;35.43;;;18.50;;
42066;SDS011;27734;47.028;28.820;2023-11-21T01:47:47;33.00;;;17.90;;
42066;SDS011;27734;47.028;28.820;2023-11-21T01:50:18;34.70;;;18.30;;
42066;SDS011;27734;47.028;28.820;2023-11-21T01:52:50;34.40;;;17.90;;
42066;SDS011;27734;47.028;28.820;2023-11-21T01:55:23;33.67;;;17.90;;
42066;SDS011;27734;47.028;28.820;2023-11-21T01:57:56;35.30;;;18.53;;
42066;SDS011;27734;47.028;28.820;2023-11-21T02:00:28;34.20;;;17.87;;
42066;SDS011;27734;47.028;28.820;2023-11-21T02:03:01;33.58;;;17.73;;
42066;SDS011;27734;47.028;28.820;2023-11-21T02:05:33;34.17;;;17.63;;
42066;SDS011;27734;47.028;28.820;2023-11-21T02:08:04;35.50;;;17.97;;
42066;SDS011;27734;47.028;28.820;2023-11-21T02:10:37;33.85;;;17.40;;
42066;SDS011;27734;47.028;28.820;2023-11-21T02:13:09;34.20;;;17.83;;
42066;SDS011;27734;47.028;28.820;2023-11-21T02:15:40;38.10;;;18.83;;
42066;SDS011;27734;47.028;28.820;2023-11-21T02:18:12;35.43;;;17.73;;
42066;SDS011;27734;47.028;28.820;2023-11-21T02:20:44;35.93;;;18.07;;
42066;SDS011;27734;47.028;28.820;2023-11-21T02:23:15;35.00;;;17.45;;
42066;SDS011;27734;47.028;28.820;2023-11-21T02:25:47;35.27;;;18.20;;
42066;SDS011;27734;47.028;28.820;2023-11-21T02:28:18;35.67;;;17.83;;
42066;SDS011;27734;47.028;28.820;2023-11-21T02:30:54;34.70;;;17.83;;
42066;SDS011;27734;47.028;28.820;2023-11-21T02:33:27;32.40;;;17.30;;
42066;SDS011;27734;47.028;28.820;2023-11-21T02:36:01;34.07;;;17.80;;
42066;SDS011;27734;47.028;28.820;2023-11-21T02:38:34;34.23;;;17.20;;
42066;SDS011;27734;47.028;28.820;2023-11-21T02:41:05;37.75;;;18.50;;
42066;SDS011;27734;47.028;28.820;2023-11-21T02:43:37;35.53;;;17.77;;
42066;SDS011;27734;47.028;28.820;2023-11-21T02:46:09;35.43;;;17.77;;
42066;SDS011;27734;47.028;28.820;2023-11-21T02:48:41;36.33;;;17.90;;
42066;SDS011;27734;47.028;28.820;2023-11-21T02:51:13;34.53;;;17.37;;
42066;SDS011;27734;47.028;28.820;2023-11-21T02:53:45;33.67;;;17.50;;
42066;SDS011;27734;47.028;28.820;2023-11-21T02:56:16;36.97;;;17.27;;
42066;SDS011;27734;47.028;28.820;2023-11-21T02:58:48;34.05;;;17.65;;
42066;SDS011;27734;47.028;28.820;2023-11-21T03:01:19;35.60;;;17.90;;
42066;SDS011;27734;47.028;28.820;2023-11-21T03:03:52;33.45;;;16.80;;
42066;SDS011;27734;47.028;28.820;2023-11-21T03:06:23;33.00;;;16.75;;
42066;SDS011;27734;47.028;28.820;2023-11-21T03:08:55;31.03;;;16.37;;
42066;SDS011;27734;47.028;28.820;2023-11-21T03:11:26;34.67;;;17.83;;
42066;SDS011;27734;47.028;28.820;2023-11-21T03:13:58;35.10;;;17.90;;
42066;SDS011;27734;47.028;28.820;2023-11-21T03:16:29;33.30;;;16.53;;
42066;SDS011;27734;47.028;28.820;2023-11-21T03:19:01;33.67;;;17.00;;
42066;SDS011;27734;47.028;28.820;2023-11-21T03:21:33;33.53;;;17.40;;
42066;SDS011;27734;47.028;28.820;2023-11-21T03:24:05;33.83;;;17.03;;
42066;SDS011;27734;47.028;28.820;2023-11-21T03:26:39;35.60;;;18.30;;
42066;SDS011;27734;47.028;28.820;2023-11-21T03:29:11;33.63;;;17.80;;
42066;SDS011;27734;47.028;28.820;2023-11-21T03:31:42;34.57;;;17.60;;
42066;SDS011;27734;47.028;28.820;2023-11-21T03:34:16;33.77;;;17.47;;
42066;SDS011;27734;47.028;28.820;2023-11-21T03:36:49;34.90;;;18.03;;
42066;SDS011;27734;47.028;28.820;2023-11-21T03:39:21;33.27;;;17.57;;
42066;SDS011;27734;47.028;28.820;2023-11-21T03:41:53;33.90;;;17.23;;
42066;SDS011;27734;47.028;28.820;2023-11-21T03:44:25;36.13;;;16.77;;
42066;SDS011;27734;47.028;28.820;2023-11-21T03:46:56;33.70;;;16.57;;
42066;SDS011;27734;47.028;28.820;2023-11-21T03:49:28;34.63;;;17.87;;
42066;SDS011;27734;47.028;28.820;2023-11-21T03:51:59;36.43;;;17.90;;
42066;SDS011;27734;47.028;28.820;2023-11-21T03:54:34;33.37;;;17.63;;
42066;SDS011;27734;47.028;28.820;2023-11-21T03:57:05;33.33;;;16.27;;
42066;SDS011;27734;47.028;28.820;2023-11-21T03:59:40;32.93;;;17.30;;
42066;SDS011;27734;47.028;28.820;2023-11-21T04:02:12;36.23;;;16.63;;
42066;SDS011;27734;47.028;28.820;2023-11-21T04:04:44;33.63;;;17.47;;
42066;SDS011;27734;47.028;28.820;2023-11-21T04:07:15;43.23;;;19.27;;
42066;SDS011;27734;47.028;28.820;2023-11-21T04:09:46;36.13;;;17.03;;
42066;SDS011;27734;47.028;28.820;2023-11-21T04:12:18;35.10;;;17.50;;
42066;SDS011;27734;47.028;28.820;2023-11-21T04:14:50;33.57;;;17.93;;
42066;SDS011;27734;47.028;28.820;2023-11-21T04:17:21;33.97;;;17.27;;
42066;SDS011;27734;47.028;28.820;2023-11-21T04:19:53;36.40;;;17.67;;
42066;SDS011;27734;47.028;28.820;2023-11-21T04:22:24;33.47;;;17.70;;
42066;SDS011;27734;47.028;28.820;2023-11-21T04:24:56;35.10;;;17.90;;
42066;SDS011;27734;47.028;28.820;2023-11-21T04:27:27;34.97;;;17.43;;
42066;SDS011;27734;47.028;28.820;2023-11-21T04:29:58;34.63;;;17.67;;
42066;SDS011;27734;47.028;28.820;2023-11-21T04:32:30;37.03;;;18.23;;
42066;SDS011;27734;47.028;28.820;2023-11-21T04:35:02;36.17;;;18.87;;
42066;SDS011;27734;47.028;28.820;2023-11-21T04:37:34;34.67;;;17.63;;
42066;SDS011;27734;47.028;28.820;2023-11-21T04:40:06;35.50;;;18.33;;
42066;SDS011;27734;47.028;28.820;2023-11-21T04:42:39;33.30;;;17.70;;
42066;SDS011;27734;47.028;28.820;2023-11-21T04:45:10;32.60;;;17.77;;
42066;SDS011;27734;47.028;28.820;2023-11-21T04:47:44;36.50;;;18.47;;
42066;SDS011;27734;47.028;28.820;2023-11-21T04:50:16;35.53;;;18.60;;
42066;SDS011;27734;47.028;28.820;2023-11-21T04:52:48;34.07;;;18.57;;
42066;SDS011;27734;47.028;28.820;2023-11-21T04:55:20;35.20;;;17.63;;
42066;SDS011;27734;47.028;28.820;2023-11-21T04:57:51;38.07;;;18.67;;
42066;SDS011;27734;47.028;28.820;2023-11-21T05:00:26;35.60;;;18.37;;
42066;SDS011;27734;47.028;28.820;2023-11-21T05:03:02;35.63;;;18.30;;
42066;SDS011;27734;47.028;28.820;2023-11-21T05:05:35;35.30;;;18.60;;
42066;SDS011;27734;47.028;28.820;2023-11-21T05:08:06;38.70;;;18.97;;
42066;SDS011;27734;47.028;28.820;2023-11-21T05:10:38;36.27;;;18.70;;
42066;SDS011;27734;47.028;28.820;2023-11-21T05:13:09;37.83;;;19.67;;
42066;SDS011;27734;47.028;28.820;2023-11-21T05:15:41;42.67;;;19.87;;
42066;SDS011;27734;47.028;28.820;2023-11-21T05:18:13;38.67;;;20.27;;
42066;SDS011;27734;47.028;28.820;2023-11-21T05:20:44;39.43;;;21.63;;
42066;SDS011;27734;47.028;28.820;2023-11-21T05:23:16;40.80;;;20.70;;
42066;SDS011;27734;47.028;28.820;2023-11-21T05:25:47;40.23;;;20.47;;
42066;SDS011;27734;47.028;28.820;2023-11-21T05:28:18;38.80;;;19.70;;
42066;SDS011;27734;47.028;28.820;2023-11-21T05:30:50;37.27;;;19.30;;
42066;SDS011;27734;47.028;28.820;2023-11-21T05:33:22;35.73;;;18.63;;
42066;SDS011;27734;47.028;28.820;2023-11-21T05:35:53;37.73;;;19.90;;
42066;SDS011;27734;47.028;28.820;2023-11-21T05:38:25;38.50;;;20.40;;
42066;SDS011;27734;47.028;28.820;2023-11-21T05:40:56;39.07;;;20.30;;
42066;SDS011;27734;47.028;28.820;2023-11-21T05:43:28;41.97;;;22.33;;
42066;SDS011;27734;47.028;28.820;2023-11-21T05:46:00;39.83;;;21.67;;
42066;SDS011;27734;47.028;28.820;2023-11-21T05:48:35;39.93;;;20.30;;
42066;SDS011;27734;47.028;28.820;2023-11-21T05:51:07;35.37;;;18.90;;
42066;SDS011;27734;47.028;28.820;2023-11-21T05:53:40;41.68;;;20.90;;
42066;SDS011;27734;47.028;28.820;2023-11-21T05:56:12;40.10;;;20.17;;
42066;SDS011;27734;47.028;28.820;2023-11-21T05:58:44;37.83;;;19.97;;
42066;SDS011;27734;47.028;28.820;2023-11-21T06:01:16;42.95;;;20.30;;
42066;SDS011;27734;47.028;28.820;2023-11-21T06:03:48;39.27;;;20.37;;
42066;SDS011;27734;47.028;28.820;2023-11-21T06:06:19;40.30;;;19.75;;
42066;SDS011;27734;47.028;28.820;2023-11-21T06:08:52;40.90;;;20.30;;
42066;SDS011;27734;47.028;28.820;2023-11-21T06:11:27;38.80;;;20.27;;
42066;SDS011;27734;47.028;28.820;2023-11-21T06:14:02;42.47;;;20.47;;
42066;SDS011;27734;47.028;28.820;2023-11-21T06:16:36;37.97;;;19.37;;
42066;SDS011;27734;47.028;28.820;2023-11-21T06:19:14;41.10;;;20.63;;
42066;SDS011;27734;47.028;28.820;2023-11-21T06:21:47;40.17;;;20.87;;
42066;SDS011;27734;47.028;28.820;2023-11-21T06:24:19;38.90;;;20.67;;
42066;SDS011;27734;47.028;28.820;2023-11-21T06:26:56;39.70;;;21.60;;
42066;SDS011;27734;47.028;28.820;2023-11-21T06:29:28;41.07;;;21.07;;
42066;SDS011;27734;47.028;28.820;2023-11-21T06:32:12;41.83;;;21.17;;
42066;SDS011;27734;47.028;28.820;2023-11-21T06:34:44;39.05;;;19.95;;
42066;SDS011;27734;47.028;28.820;2023-11-21T06:37:15;39.83;;;20.73;;
42066;SDS011;27734;47.028;28.820;2023-11-21T06:39:49;41.35;;;21.73;;
42066;SDS011;27734;47.028;28.820;2023-11-21T06:42:21;38.30;;;20.97;;
42066;SDS011;27734;47.028;28.820;2023-11-21T06:44:56;40.20;;;21.63;;
42066;SDS011;27734;47.028;28.820;2023-11-21T06:47:32;41.85;;;21.40;;
42066;SDS011;27734;47.028;28.820;2023-11-21T06:50:07;40.73;;;21.20;;
42066;SDS011;27734;47.028;28.820;2023-11-21T06:52:51;41.70;;;22.10;;
42066;SDS011;27734;47.028;28.820;2023-11-21T06:55:25;42.93;;;22.30;;
42066;SDS011;27734;47.028;28.820;2023-11-21T06:57:57;45.90;;;23.25;;
42066;SDS011;27734;47.028;28.820;2023-11-21T07:00:30;42.65;;;22.55;;
42066;SDS011;27734;47.028;28.820;2023-11-21T07:03:03;45.37;;;23.40;;
42066;SDS011;27734;47.028;28.820;2023-11-21T07:05:37;37.73;;;21.37;;
42066;SDS011;27734;47.028;28.820;2023-11-21T07:08:12;40.80;;;21.50;;
42066;SDS011;27734;47.028;28.820;2023-11-21T07:13:36;38.03;;;20.70;;
42066;SDS011;27734;47.028;28.820;2023-11-21T07:16:11;38.93;;;21.03;;
42066;SDS011;27734;47.028;28.820;2023-11-21T07:18:44;41.07;;;21.80;;
42066;SDS011;27734;47.028;28.820;2023-11-21T07:21:17;40.23;;;21.50;;
42066;SDS011;27734;47.028;28.820;2023-11-21T07:23:49;38.50;;;20.93;;
42066;SDS011;27734;47.028;28.820;2023-11-21T07:26:22;44.03;;;21.87;;
42066;SDS011;27734;47.028;28.820;2023-11-21T07:28:57;39.30;;;20.97;;
42066;SDS011;27734;47.028;28.820;2023-11-21T07:31:35;40.10;;;21.43;;
42066;SDS011;27734;47.028;28.820;2023-11-21T07:34:12;39.60;;;20.97;;
42066;SDS011;27734;47.028;28.820;2023-11-21T07:36:44;40.37;;;21.93;;
42066;SDS011;27734;47.028;28.820;2023-11-21T07:39:43;40.43;;;21.30;;
42066;SDS011;27734;47.028;28.820;2023-11-21T07:42:15;40.80;;;21.57;;
42066;SDS011;27734;47.028;28.820;2023-11-21T07:44:48;41.90;;;21.93;;
42066;SDS011;27734;47.028;28.820;2023-11-21T07:50:39;41.00;;;22.17;;
42066;SDS011;27734;47.028;28.820;2023-11-21T07:53:17;43.53;;;22.67;;
42066;SDS011;27734;47.028;28.820;2023-11-21T07:55:55;42.37;;;21.77;;
42066;SDS011;27734;47.028;28.820;2023-11-21T07:58:34;44.60;;;23.13;;
42066;SDS011;27734;47.028;28.820;2023-11-21T08:01:07;39.43;;;21.77;;
42066;SDS011;27734;47.028;28.820;2023-11-21T08:03:41;42.07;;;22.33;;
42066;SDS011;27734;47.028;28.820;2023-11-21T08:08:46;46.73;;;23.20;;
42066;SDS011;27734;47.028;28.820;2023-11-21T08:11:19;45.23;;;22.07;;
42066;SDS011;27734;47.028;28.820;2023-11-21T08:16:43;43.70;;;21.47;;
42066;SDS011;27734;47.028;28.820;2023-11-21T08:19:22;46.17;;;24.57;;
42066;SDS011;27734;47.028;28.820;2023-11-21T08:21:56;42.30;;;22.80;;
42066;SDS011;27734;47.028;28.820;2023-11-21T08:24:28;43.10;;;22.03;;
42066;SDS011;27734;47.028;28.820;2023-11-21T08:26:59;43.70;;;22.13;;
42066;SDS011;27734;47.028;28.820;2023-11-21T08:29:33;41.93;;;22.37;;
42066;SDS011;27734;47.028;28.820;2023-11-21T08:32:07;38.70;;;20.90;;
42066;SDS011;27734;47.028;28.820;2023-11-21T08:34:39;40.47;;;20.90;;
42066;SDS011;27734;47.028;28.820;2023-11-21T08:37:13;40.67;;;22.70;;
42066;SDS011;27734;47.028;28.820;2023-11-21T08:39:49;38.93;;;21.43;;
42066;SDS011;27734;47.028;28.820;2023-11-21T08:42:29;39.30;;;22.43;;
42066;SDS011;27734;47.028;28.820;2023-11-21T08:45:06;42.17;;;22.80;;
42066;SDS011;27734;47.028;28.820;2023-11-21T08:47:40;37.67;;;21.77;;
42066;SDS011;27734;47.028;28.820;2023-11-21T08:50:22;41.87;;;24.30;;
42066;SDS011;27734;47.028;28.820;2023-11-21T08:52:57;40.30;;;22.65;;
42066;SDS011;27734;47.028;28.820;2023-11-21T08:55:32;44.43;;;25.10;;
42066;SDS011;27734;47.028;28.820;2023-11-21T08:58:07;42.33;;;24.47;;
42066;SDS011;27734;47.028;28.820;2023-11-21T09:00:47;48.00;;;24.87;;
42066;SDS011;27734;47.028;28.820;2023-11-21T09:03:28;46.87;;;25.27;;
42066;SDS011;27734;47.028;28.820;2023-11-21T09:06:00;40.13;;;24.03;;
42066;SDS011;27734;47.028;28.820;2023-11-21T09:08:47;43.13;;;24.13;;
42066;SDS011;27734;47.028;28.820;2023-11-21T09:11:18;44.90;;;25.17;;
42066;SDS011;27734;47.028;28.820;2023-11-21T09:14:31;43.87;;;22.90;;
42066;SDS011;27734;47.028;28.820;2023-11-21T09:17:14;41.70;;;22.30;;
42066;SDS011;27734;47.028;28.820;2023-11-21T09:19:54;42.73;;;23.00;;
42066;SDS011;27734;47.028;28.820;2023-11-21T09:22:56;39.73;;;22.00;;
42066;SDS011;27734;47.028;28.820;2023-11-21T09:25:29;40.15;;;22.27;;
42066;SDS011;27734;47.028;28.820;2023-11-21T09:28:02;41.87;;;21.57;;
42066;SDS011;27734;47.028;28.820;2023-11-21T09:30:36;38.83;;;21.47;;
42066;SDS011;27734;47.028;28.820;2023-11-21T09:33:09;37.40;;;20.77;;
42066;SDS011;27734;47.028;28.820;2023-11-21T09:35:43;36.17;;;20.83;;
42066;SDS011;27734;47.028;28.820;2023-11-21T09:38:14;36.38;;;20.17;;
42066;SDS011;27734;47.028;28.820;2023-11-21T09:40:48;36.68;;;20.10;;
42066;SDS011;27734;47.028;28.820;2023-11-21T09:43:29;34.67;;;18.90;;
42066;SDS011;27734;47.028;28.820;2023-11-21T09:46:04;41.77;;;21.80;;
42066;SDS011;27734;47.028;28.820;2023-11-21T09:48:44;38.60;;;20.87;;
42066;SDS011;27734;47.028;28.820;2023-11-21T09:51:29;39.47;;;21.37;;
42066;SDS011;27734;47.028;28.820;2023-11-21T09:54:10;38.67;;;21.20;;
42066;SDS011;27734;47.028;28.820;2023-11-21T09:56:44;38.70;;;20.87;;
42066;SDS011;27734;47.028;28.820;2023-11-21T09:59:24;40.10;;;20.37;;
42066;SDS011;27734;47.028;28.820;2023-11-21T10:02:01;39.03;;;20.90;;
42066;SDS011;27734;47.028;28.820;2023-11-21T10:04:44;37.63;;;20.50;;
42066;SDS011;27734;47.028;28.820;2023-11-21T10:07:26;37.43;;;20.03;;
42066;SDS011;27734;47.028;28.820;2023-11-21T10:10:03;39.77;;;19.90;;
42066;SDS011;27734;47.028;28.820;2023-11-21T10:12:54;35.17;;;19.93;;
42066;SDS011;27734;47.028;28.820;2023-11-21T10:15:29;34.93;;;20.07;;
42066;SDS011;27734;47.028;28.820;2023-11-21T10:18:13;35.67;;;18.47;;
42066;SDS011;27734;47.028;28.820;2023-11-21T10:21:02;34.30;;;18.55;;
42066;SDS011;27734;47.028;28.820;2023-11-21T10:23:40;34.33;;;18.53;;
42066;SDS011;27734;47.028;28.820;2023-11-21T10:26:16;35.77;;;18.90;;
42066;SDS011;27734;47.028;28.820;2023-11-21T10:28:57;37.55;;;19.25;;
42066;SDS011;27734;47.028;28.820;2023-11-21T10:31:29;36.30;;;19.63;;
42066;SDS011;27734;47.028;28.820;2023-11-21T10:34:15;33.87;;;19.23;;
42066;SDS011;27734;47.028;28.820;2023-11-21T10:36:50;35.50;;;19.00;;
42066;SDS011;27734;47.028;28.820;2023-11-21T10:39:38;31.20;;;17.37;;
42066;SDS011;27734;47.028;28.820;2023-11-21T10:42:15;32.80;;;18.30;;
42066;SDS011;27734;47.028;28.820;2023-11-21T10:45:00;32.53;;;17.23;;
42066;SDS011;27734;47.028;28.820;2023-11-21T10:47:51;33.33;;;17.63;;
42066;SDS011;27734;47.028;28.820;2023-11-21T10:53:40;34.80;;;17.87;;
42066;SDS011;27734;47.028;28.820;2023-11-21T10:56:31;32.37;;;16.50;;
42066;SDS011;27734;47.028;28.820;2023-11-21T10:59:40;31.90;;;17.17;;
42066;SDS011;27734;47.028;28.820;2023-11-21T11:02:21;33.50;;;17.40;;
42066;SDS011;27734;47.028;28.820;2023-11-21T11:04:56;32.43;;;17.57;;
42066;SDS011;27734;47.028;28.820;2023-11-21T11:10:02;35.03;;;18.03;;
42066;SDS011;27734;47.028;28.820;2023-11-21T11:12:59;32.17;;;17.23;;
42066;SDS011;27734;47.028;28.820;2023-11-21T11:15:34;31.90;;;17.37;;
42066;SDS011;27734;47.028;28.820;2023-11-21T11:18:09;32.27;;;18.27;;
42066;SDS011;27734;47.028;28.820;2023-11-21T11:20:44;34.93;;;18.13;;
42066;SDS011;27734;47.028;28.820;2023-11-21T11:23:26;32.23;;;17.30;;
42066;SDS011;27734;47.028;28.820;2023-11-21T11:26:12;36.53;;;17.53;;
42066;SDS011;27734;47.028;28.820;2023-11-21T11:29:01;32.60;;;17.10;;
42066;SDS011;27734;47.028;28.820;2023-11-21T11:31:48;32.80;;;18.07;;
42066;SDS011;27734;47.028;28.820;2023-11-21T11:34:48;34.83;;;18.03;;
42066;SDS011;27734;47.028;28.820;2023-11-21T11:37:31;34.33;;;18.27;;
42066;SDS011;27734;47.028;28.820;2023-11-21T11:40:18;39.07;;;18.40;;
42066;SDS011;27734;47.028;28.820;2023-11-21T11:43:06;32.15;;;17.20;;
42066;SDS011;27734;47.028;28.820;2023-11-21T11:46:02;31.73;;;17.50;;
42066;SDS011;27734;47.028;28.820;2023-11-21T11:49:39;31.33;;;17.47;;
42066;SDS011;27734;47.028;28.820;2023-11-21T11:53:12;30.07;;;16.80;;
42066;SDS011;27734;47.028;28.820;2023-11-21T11:56:04;33.20;;;17.67;;
42066;SDS011;27734;47.028;28.820;2023-11-21T11:58:57;31.13;;;17.07;;
42066;SDS011;27734;47.028;28.820;2023-11-21T12:01:37;33.80;;;17.63;;
42066;SDS011;27734;47.028;28.820;2023-11-21T12:04:46;32.30;;;17.93;;
42066;SDS011;27734;47.028;28.820;2023-11-21T12:07:23;35.13;;;17.77;;
42066;SDS011;27734;47.028;28.820;2023-11-21T12:10:13;31.80;;;16.47;;
42066;SDS011;27734;47.028;28.820;2023-11-21T12:12:53;34.63;;;18.00;;
42066;SDS011;27734;47.028;28.820;2023-11-21T12:15:35;34.87;;;18.27;;
42066;SDS011;27734;47.028;28.820;2023-11-21T12:18:16;35.17;;;17.90;;
42066;SDS011;27734;47.028;28.820;2023-11-21T12:20:55;31.95;;;16.70;;
42066;SDS011;27734;47.028;28.820;2023-11-21T12:23:41;36.27;;;18.80;;
42066;SDS011;27734;47.028;28.820;2023-11-21T12:26:17;30.30;;;17.33;;
42066;SDS011;27734;47.028;28.820;2023-11-21T12:28:57;34.50;;;17.00;;
42066;SDS011;27734;47.028;28.820;2023-11-21T12:31:38;36.57;;;17.90;;
42066;SDS011;27734;47.028;28.820;2023-11-21T12:34:30;34.23;;;18.07;;
42066;SDS011;27734;47.028;28.820;2023-11-21T12:37:08;36.73;;;18.10;;
42066;SDS011;27734;47.028;28.820;2023-11-21T12:39:56;32.50;;;16.70;;
42066;SDS011;27734;47.028;28.820;2023-11-21T12:42:38;31.47;;;17.53;;
42066;SDS011;27734;47.028;28.820;2023-11-21T12:45:23;35.17;;;16.90;;
42066;SDS011;27734;47.028;28.820;2023-11-21T12:48:17;34.50;;;16.67;;
42066;SDS011;27734;47.028;28.820;2023-11-21T12:51:04;32.63;;;17.23;;
42066;SDS011;27734;47.028;28.820;2023-11-21T12:53:48;35.87;;;18.30;;
42066;SDS011;27734;47.028;28.820;2023-11-21T12:56:51;31.95;;;17.80;;
42066;SDS011;27734;47.028;28.820;2023-11-21T12:59:47;34.90;;;18.20;;
42066;SDS011;27734;47.028;28.820;2023-11-21T13:02:31;35.33;;;18.98;;
42066;SDS011;27734;47.028;28.820;2023-11-21T13:08:25;35.43;;;18.40;;
42066;SDS011;27734;47.028;28.820;2023-11-21T13:11:09;39.00;;;19.10;;
42066;SDS011;27734;47.028;28.820;2023-11-21T13:14:14;35.07;;;18.50;;
42066;SDS011;27734;47.028;28.820;2023-11-21T13:16:51;36.20;;;17.92;;
42066;SDS011;27734;47.028;28.820;2023-11-21T13:19:30;39.15;;;19.50;;
42066;SDS011;27734;47.028;28.820;2023-11-21T13:22:09;36.13;;;19.60;;
42066;SDS011;27734;47.028;28.820;2023-11-21T13:24:47;35.47;;;19.07;;
42066;SDS011;27734;47.028;28.820;2023-11-21T13:27:31;36.63;;;19.73;;
42066;SDS011;27734;47.028;28.820;2023-11-21T13:30:09;35.30;;;18.77;;
42066;SDS011;27734;47.028;28.820;2023-11-21T13:32:54;34.77;;;17.90;;
42066;SDS011;27734;47.028;28.820;2023-11-21T13:35:38;36.43;;;19.97;;
42066;SDS011;27734;47.028;28.820;2023-11-21T13:38:27;36.53;;;19.50;;
42066;SDS011;27734;47.028;28.820;2023-11-21T13:41:11;35.23;;;18.90;;
42066;SDS011;27734;47.028;28.820;2023-11-21T13:43:49;32.33;;;17.83;;
42066;SDS011;27734;47.028;28.820;2023-11-21T13:46:35;35.17;;;18.67;;
42066;SDS011;27734;47.028;28.820;2023-11-21T13:49:24;34.10;;;18.87;;
42066;SDS011;27734;47.028;28.820;2023-11-21T13:52:16;32.63;;;19.03;;
42066;SDS011;27734;47.028;28.820;2023-11-21T13:54:59;38.97;;;19.53;;
42066;SDS011;27734;47.028;28.820;2023-11-21T13:57:39;40.73;;;21.13;;
42066;SDS011;27734;47.028;28.820;2023-11-21T14:00:26;43.33;;;22.37;;
42066;SDS011;27734;47.028;28.820;2023-11-21T14:03:23;45.57;;;21.80;;
42066;SDS011;27734;47.028;28.820;2023-11-21T14:09:08;39.37;;;20.23;;
42066;SDS011;27734;47.028;28.820;2023-11-21T14:12:13;38.90;;;20.13;;
42066;SDS011;27734;47.028;28.820;2023-11-21T14:14:50;43.17;;;21.07;;
42066;SDS011;27734;47.028;28.820;2023-11-21T14:17:30;44.10;;;21.07;;
42066;SDS011;27734;47.028;28.820;2023-11-21T14:20:16;36.90;;;19.73;;
42066;SDS011;27734;47.028;28.820;2023-11-21T14:22:58;34.10;;;18.37;;
42066;SDS011;27734;47.028;28.820;2023-11-21T14:25:36;36.50;;;19.50;;
42066;SDS011;27734;47.028;28.820;2023-11-21T14:28:12;40.43;;;20.10;;
42066;SDS011;27734;47.028;28.820;2023-11-21T14:30:49;39.03;;;20.17;;
42066;SDS011;27734;47.028;28.820;2023-11-21T14:33:27;40.30;;;19.63;;
42066;SDS011;27734;47.028;28.820;2023-11-21T14:36:07;38.50;;;19.93;;
42066;SDS011;27734;47.028;28.820;2023-11-21T14:38:48;37.83;;;18.90;;
42066;SDS011;27734;47.028;28.820;2023-11-21T14:41:29;36.13;;;19.13;;
42066;SDS011;27734;47.028;28.820;2023-11-21T14:44:12;40.03;;;20.27;;
42066;SDS011;27734;47.028;28.820;2023-11-21T14:49:20;37.77;;;19.87;;
42066;SDS011;27734;47.028;28.820;2023-11-21T14:52:08;36.40;;;20.17;;
42066;SDS011;27734;47.028;28.820;2023-11-21T14:54:51;39.67;;;22.00;;
42066;SDS011;27734;47.028;28.820;2023-11-21T14:57:47;41.83;;;23.00;;
42066;SDS011;27734;47.028;28.820;2023-11-21T15:00:26;46.37;;;22.60;;
42066;SDS011;27734;47.028;28.820;2023-11-21T15:03:14;41.87;;;22.80;;
42066;SDS011;27734;47.028;28.820;2023-11-21T15:06:15;44.17;;;24.67;;
42066;SDS011;27734;47.028;28.820;2023-11-21T15:08:59;45.55;;;24.27;;
42066;SDS011;27734;47.028;28.820;2023-11-21T15:12:09;43.13;;;23.40;;
42066;SDS011;27734;47.028;28.820;2023-11-21T15:14:53;45.97;;;23.63;;
42066;SDS011;27734;47.028;28.820;2023-11-21T15:17:27;48.10;;;23.67;;
42066;SDS011;27734;47.028;28.820;2023-11-21T15:20:02;41.30;;;22.50;;
42066;SDS011;27734;47.028;28.820;2023-11-21T15:22:42;40.15;;;21.20;;
42066;SDS011;27734;47.028;28.820;2023-11-21T15:25:21;40.87;;;21.73;;
42066;SDS011;27734;47.028;28.820;2023-11-21T15:28:02;44.00;;;21.53;;
42066;SDS011;27734;47.028;28.820;2023-11-21T15:33:34;40.00;;;21.50;;
42066;SDS011;27734;47.028;28.820;2023-11-21T15:36:14;38.83;;;19.37;;
42066;SDS011;27734;47.028;28.820;2023-11-21T15:38:48;36.90;;;19.77;;